sensor_id;sensor_type;location;lat;lon;timestamp;temperature;humidity
59148;DHT22;44930;52.878;6.168;2023-01-09T00:02:10;6.90;99.90
59148;DHT22;44930;52.878;6.168;2023-01-09T00:04:35;6.80;99.90
59148;DHT22;44930;52.878;6.168;2023-01-09T00:07:01;6.70;99.90
59148;DHT22;44930;52.878;6.168;2023-01-09T00:11:52;6.80;99.90
59148;DHT22;44930;52.878;6.168;2023-01-09T00:14:22;6.80;99.90
59148;DHT22;44930;52.878;6.168;2023-01-09T00:16:48;6.80;99.90
59148;DHT22;44930;52.878;6.168;2023-01-09T00:19:14;6.90;99.90
59148;DHT22;44930;52.878;6.168;2023-01-09T00:21:40;6.80;99.90
59148;DHT22;44930;52.878;6.168;2023-01-09T00:24:06;6.90;99.90
59148;DHT22;44930;52.878;6.168;2023-01-09T00:26:32;6.90;99.90
59148;DHT22;44930;52.878;6.168;2023-01-09T00:28:57;6.80;99.90
59148;DHT22;44930;52.878;6.168;2023-01-09T00:31:23;6.90;99.90
59148;DHT22;44930;52.878;6.168;2023-01-09T00:36:23;7.00;99.90
59148;DHT22;44930;52.878;6.168;2023-01-09T00:38:49;6.90;99.90
59148;DHT22;44930;52.878;6.168;2023-01-09T00:41:18;6.90;99.90
59148;DHT22;44930;52.878;6.168;2023-01-09T00:43:48;6.90;99.90
59148;DHT22;44930;52.878;6.168;2023-01-09T00:46:15;6.90;99.90
59148;DHT22;44930;52.878;6.168;2023-01-09T00:48:42;6.90;99.90
59148;DHT22;44930;52.878;6.168;2023-01-09T00:51:09;6.90;99.90
59148;DHT22;44930;52.878;6.168;2023-01-09T00:53:36;6.80;99.90
59148;DHT22;44930;52.878;6.168;2023-01-09T00:58:32;7.20;99.90
59148;DHT22;44930;52.878;6.168;2023-01-09T01:00:59;6.90;99.90
59148;DHT22;44930;52.878;6.168;2023-01-09T01:03:25;6.80;99.90
59148;DHT22;44930;52.878;6.168;2023-01-09T01:05:50;6.90;99.90
59148;DHT22;44930;52.878;6.168;2023-01-09T01:08:34;6.90;99.90
59148;DHT22;44930;52.878;6.168;2023-01-09T01:11:04;6.90;99.90
59148;DHT22;44930;52.878;6.168;2023-01-09T01:13:30;6.90;99.90
59148;DHT22;44930;52.878;6.168;2023-01-09T01:15:56;6.90;99.90
59148;DHT22;44930;52.878;6.168;2023-01-09T01:18:22;7.00;99.90
59148;DHT22;44930;52.878;6.168;2023-01-09T01:20:47;6.80;99.90
59148;DHT22;44930;52.878;6.168;2023-01-09T01:23:13;6.80;99.90
59148;DHT22;44930;52.878;6.168;2023-01-09T01:25:39;6.80;99.90
59148;DHT22;44930;52.878;6.168;2023-01-09T01:28:06;6.80;99.90
59148;DHT22;44930;52.878;6.168;2023-01-09T01:30:32;6.80;99.90
59148;DHT22;44930;52.878;6.168;2023-01-09T01:32:58;6.90;99.90
59148;DHT22;44930;52.878;6.168;2023-01-09T01:35:23;6.80;99.90
59148;DHT22;44930;52.878;6.168;2023-01-09T01:37:51;6.80;99.90
59148;DHT22;44930;52.878;6.168;2023-01-09T01:40:16;6.50;99.90
59148;DHT22;44930;52.878;6.168;2023-01-09T01:42:47;6.80;99.90
59148;DHT22;44930;52.878;6.168;2023-01-09T01:45:15;6.70;99.90
59148;DHT22;44930;52.878;6.168;2023-01-09T01:50:16;6.80;99.90
59148;DHT22;44930;52.878;6.168;2023-01-09T01:52:47;6.50;99.90
59148;DHT22;44930;52.878;6.168;2023-01-09T01:55:16;6.60;99.90
59148;DHT22;44930;52.878;6.168;2023-01-09T01:57:45;6.50;99.90
59148;DHT22;44930;52.878;6.168;2023-01-09T02:00:13;6.50;99.90
59148;DHT22;44930;52.878;6.168;2023-01-09T02:02:38;6.50;99.90
59148;DHT22;44930;52.878;6.168;2023-01-09T02:05:04;6.40;99.90
59148;DHT22;44930;52.878;6.168;2023-01-09T02:07:30;6.60;99.90
59148;DHT22;44930;52.878;6.168;2023-01-09T02:09:56;6.40;99.90
59148;DHT22;44930;52.878;6.168;2023-01-09T02:26:11;6.40;99.90
59148;DHT22;44930;52.878;6.168;2023-01-09T02:37:56;6.20;99.90
59148;DHT22;44930;52.878;6.168;2023-01-09T02:40:46;6.10;99.90
59148;DHT22;44930;52.878;6.168;2023-01-09T02:43:13;6.10;99.90
59148;DHT22;44930;52.878;6.168;2023-01-09T02:45:39;6.20;99.90
59148;DHT22;44930;52.878;6.168;2023-01-09T02:48:06;6.00;99.90
59148;DHT22;44930;52.878;6.168;2023-01-09T02:56:29;5.80;99.90
59148;DHT22;44930;52.878;6.168;2023-01-09T02:59:11;5.70;99.90
59148;DHT22;44930;52.878;6.168;2023-01-09T03:10:36;5.60;99.90
59148;DHT22;44930;52.878;6.168;2023-01-09T03:13:04;5.60;99.90
59148;DHT22;44930;52.878;6.168;2023-01-09T03:15:33;5.80;99.90
59148;DHT22;44930;52.878;6.168;2023-01-09T03:18:03;5.60;99.90
59148;DHT22;44930;52.878;6.168;2023-01-09T03:20:30;5.70;99.90
59148;DHT22;44930;52.878;6.168;2023-01-09T03:23:01;5.60;99.90
59148;DHT22;44930;52.878;6.168;2023-01-09T03:25:28;5.60;99.90
59148;DHT22;44930;52.878;6.168;2023-01-09T03:27:59;5.50;99.90
59148;DHT22;44930;52.878;6.168;2023-01-09T03:30:26;5.60;99.90
59148;DHT22;44930;52.878;6.168;2023-01-09T03:32:52;5.60;99.90
59148;DHT22;44930;52.878;6.168;2023-01-09T03:35:18;5.70;99.90
59148;DHT22;44930;52.878;6.168;2023-01-09T03:37:44;5.60;99.90
59148;DHT22;44930;52.878;6.168;2023-01-09T03:40:10;5.60;99.90
59148;DHT22;44930;52.878;6.168;2023-01-09T03:42:35;5.70;99.90
59148;DHT22;44930;52.878;6.168;2023-01-09T03:45:02;5.60;99.90
59148;DHT22;44930;52.878;6.168;2023-01-09T03:47:28;5.60;99.90
59148;DHT22;44930;52.878;6.168;2023-01-09T03:49:53;5.60;99.90
59148;DHT22;44930;52.878;6.168;2023-01-09T03:52:19;5.70;99.90
59148;DHT22;44930;52.878;6.168;2023-01-09T03:54:44;5.50;99.90
59148;DHT22;44930;52.878;6.168;2023-01-09T03:57:10;5.60;99.90
59148;DHT22;44930;52.878;6.168;2023-01-09T03:59:35;5.20;99.90
59148;DHT22;44930;52.878;6.168;2023-01-09T04:02:01;5.50;99.90
59148;DHT22;44930;52.878;6.168;2023-01-09T04:06:53;5.50;99.90
59148;DHT22;44930;52.878;6.168;2023-01-09T04:09:18;5.50;99.90
59148;DHT22;44930;52.878;6.168;2023-01-09T04:11:44;5.50;99.90
59148;DHT22;44930;52.878;6.168;2023-01-09T04:14:09;5.50;99.90
59148;DHT22;44930;52.878;6.168;2023-01-09T04:16:35;5.60;99.90
59148;DHT22;44930;52.878;6.168;2023-01-09T04:19:00;5.60;99.90
59148;DHT22;44930;52.878;6.168;2023-01-09T04:21:26;5.50;99.90
59148;DHT22;44930;52.878;6.168;2023-01-09T04:23:51;5.50;99.90
59148;DHT22;44930;52.878;6.168;2023-01-09T04:26:17;5.50;99.90
59148;DHT22;44930;52.878;6.168;2023-01-09T04:28:42;5.60;99.90
59148;DHT22;44930;52.878;6.168;2023-01-09T04:31:08;5.50;99.90
59148;DHT22;44930;52.878;6.168;2023-01-09T04:33:34;5.50;99.90
59148;DHT22;44930;52.878;6.168;2023-01-09T04:35:59;5.50;99.90
59148;DHT22;44930;52.878;6.168;2023-01-09T04:38:25;5.50;99.90
59148;DHT22;44930;52.878;6.168;2023-01-09T04:40:51;5.40;99.90
59148;DHT22;44930;52.878;6.168;2023-01-09T04:43:17;5.40;99.90
59148;DHT22;44930;52.878;6.168;2023-01-09T04:48:09;5.30;99.90
59148;DHT22;44930;52.878;6.168;2023-01-09T04:50:35;5.30;99.90
59148;DHT22;44930;52.878;6.168;2023-01-09T04:53:00;5.40;99.90
59148;DHT22;44930;52.878;6.168;2023-01-09T04:55:26;5.40;99.90
59148;DHT22;44930;52.878;6.168;2023-01-09T04:57:51;5.30;99.90
59148;DHT22;44930;52.878;6.168;2023-01-09T05:00:17;5.40;99.90
59148;DHT22;44930;52.878;6.168;2023-01-09T05:02:43;5.10;99.90
59148;DHT22;44930;52.878;6.168;2023-01-09T05:05:09;5.20;99.90
59148;DHT22;44930;52.878;6.168;2023-01-09T05:10:02;5.30;99.90
59148;DHT22;44930;52.878;6.168;2023-01-09T05:12:28;5.20;99.90
59148;DHT22;44930;52.878;6.168;2023-01-09T05:14:53;5.50;99.90
59148;DHT22;44930;52.878;6.168;2023-01-09T05:17:19;5.30;99.90
59148;DHT22;44930;52.878;6.168;2023-01-09T05:19:44;5.30;99.90
59148;DHT22;44930;52.878;6.168;2023-01-09T05:22:13;5.30;99.90
59148;DHT22;44930;52.878;6.168;2023-01-09T05:24:39;5.30;99.90
59148;DHT22;44930;52.878;6.168;2023-01-09T05:27:04;5.30;99.90
59148;DHT22;44930;52.878;6.168;2023-01-09T05:29:30;5.40;99.90
59148;DHT22;44930;52.878;6.168;2023-01-09T05:31:56;5.40;99.90
59148;DHT22;44930;52.878;6.168;2023-01-09T05:34:22;5.50;99.90
59148;DHT22;44930;52.878;6.168;2023-01-09T05:36:47;5.40;99.90
59148;DHT22;44930;52.878;6.168;2023-01-09T05:39:13;5.50;99.90
59148;DHT22;44930;52.878;6.168;2023-01-09T05:41:38;5.50;99.90
59148;DHT22;44930;52.878;6.168;2023-01-09T05:46:30;5.40;99.90
59148;DHT22;44930;52.878;6.168;2023-01-09T05:48:56;5.50;99.90
59148;DHT22;44930;52.878;6.168;2023-01-09T05:51:22;5.50;99.90
59148;DHT22;44930;52.878;6.168;2023-01-09T05:53:48;5.50;99.90
59148;DHT22;44930;52.878;6.168;2023-01-09T05:56:14;5.40;99.90
59148;DHT22;44930;52.878;6.168;2023-01-09T05:58:39;5.60;99.90
59148;DHT22;44930;52.878;6.168;2023-01-09T06:01:05;5.60;99.90
59148;DHT22;44930;52.878;6.168;2023-01-09T06:03:31;5.50;99.90
59148;DHT22;44930;52.878;6.168;2023-01-09T06:05:56;5.60;99.90
59148;DHT22;44930;52.878;6.168;2023-01-09T06:08:22;5.60;99.90
59148;DHT22;44930;52.878;6.168;2023-01-09T06:10:47;5.60;99.90
59148;DHT22;44930;52.878;6.168;2023-01-09T06:13:13;5.50;99.90
59148;DHT22;44930;52.878;6.168;2023-01-09T06:15:39;5.60;99.90
59148;DHT22;44930;52.878;6.168;2023-01-09T06:18:05;5.50;99.90
59148;DHT22;44930;52.878;6.168;2023-01-09T06:20:30;5.60;99.90
59148;DHT22;44930;52.878;6.168;2023-01-09T06:22:56;5.60;99.90
59148;DHT22;44930;52.878;6.168;2023-01-09T06:25:22;5.60;99.90
59148;DHT22;44930;52.878;6.168;2023-01-09T06:27:48;5.50;99.90
59148;DHT22;44930;52.878;6.168;2023-01-09T06:32:40;5.50;99.90
59148;DHT22;44930;52.878;6.168;2023-01-09T06:35:06;5.60;99.90
59148;DHT22;44930;52.878;6.168;2023-01-09T06:37:31;5.40;99.90
59148;DHT22;44930;52.878;6.168;2023-01-09T06:39:58;5.20;99.90
59148;DHT22;44930;52.878;6.168;2023-01-09T06:42:23;5.10;99.90
59148;DHT22;44930;52.878;6.168;2023-01-09T06:44:49;5.10;99.90
59148;DHT22;44930;52.878;6.168;2023-01-09T06:47:14;5.10;99.90
59148;DHT22;44930;52.878;6.168;2023-01-09T06:49:40;5.00;99.90
59148;DHT22;44930;52.878;6.168;2023-01-09T06:52:05;4.90;99.90
59148;DHT22;44930;52.878;6.168;2023-01-09T06:56:58;4.80;99.90
59148;DHT22;44930;52.878;6.168;2023-01-09T06:59:24;4.90;99.90
59148;DHT22;44930;52.878;6.168;2023-01-09T07:01:50;4.80;99.90
59148;DHT22;44930;52.878;6.168;2023-01-09T07:04:15;4.90;99.90
59148;DHT22;44930;52.878;6.168;2023-01-09T07:06:42;4.80;99.90
59148;DHT22;44930;52.878;6.168;2023-01-09T07:09:08;4.80;99.90
59148;DHT22;44930;52.878;6.168;2023-01-09T07:11:38;4.80;99.90
59148;DHT22;44930;52.878;6.168;2023-01-09T07:14:03;4.80;99.90
59148;DHT22;44930;52.878;6.168;2023-01-09T07:18:55;4.90;99.90
59148;DHT22;44930;52.878;6.168;2023-01-09T07:21:20;5.00;99.90
59148;DHT22;44930;52.878;6.168;2023-01-09T07:23:46;5.00;99.90
59148;DHT22;44930;52.878;6.168;2023-01-09T07:26:12;5.00;99.90
59148;DHT22;44930;52.878;6.168;2023-01-09T07:31:03;5.10;99.90
59148;DHT22;44930;52.878;6.168;2023-01-09T07:33:32;5.20;99.90
59148;DHT22;44930;52.878;6.168;2023-01-09T07:35:58;5.30;99.90
59148;DHT22;44930;52.878;6.168;2023-01-09T07:38:23;5.30;99.90
59148;DHT22;44930;52.878;6.168;2023-01-09T07:40:49;5.30;99.90
59148;DHT22;44930;52.878;6.168;2023-01-09T07:43:14;5.30;99.90
59148;DHT22;44930;52.878;6.168;2023-01-09T07:48:06;5.40;99.90
59148;DHT22;44930;52.878;6.168;2023-01-09T07:50:32;5.50;99.90
59148;DHT22;44930;52.878;6.168;2023-01-09T07:52:57;5.40;99.90
59148;DHT22;44930;52.878;6.168;2023-01-09T07:55:23;5.50;99.90
59148;DHT22;44930;52.878;6.168;2023-01-09T07:57:49;5.60;99.90
59148;DHT22;44930;52.878;6.168;2023-01-09T08:00:15;5.50;99.90
59148;DHT22;44930;52.878;6.168;2023-01-09T08:02:41;5.60;99.90
59148;DHT22;44930;52.878;6.168;2023-01-09T08:05:07;5.60;99.90
59148;DHT22;44930;52.878;6.168;2023-01-09T08:07:33;5.50;99.90
59148;DHT22;44930;52.878;6.168;2023-01-09T08:09:59;5.50;99.90
59148;DHT22;44930;52.878;6.168;2023-01-09T08:12:24;5.70;99.90
59148;DHT22;44930;52.878;6.168;2023-01-09T08:17:16;5.70;99.90
59148;DHT22;44930;52.878;6.168;2023-01-09T08:19:42;5.70;99.90
59148;DHT22;44930;52.878;6.168;2023-01-09T08:22:08;5.90;99.90
59148;DHT22;44930;52.878;6.168;2023-01-09T08:24:34;5.80;99.90
59148;DHT22;44930;52.878;6.168;2023-01-09T08:27:01;5.80;99.90
59148;DHT22;44930;52.878;6.168;2023-01-09T08:29:27;5.80;99.90
59148;DHT22;44930;52.878;6.168;2023-01-09T08:31:55;5.70;99.90
59148;DHT22;44930;52.878;6.168;2023-01-09T08:34:20;5.80;99.90
59148;DHT22;44930;52.878;6.168;2023-01-09T08:36:46;5.70;99.90
59148;DHT22;44930;52.878;6.168;2023-01-09T08:39:11;5.90;99.90
59148;DHT22;44930;52.878;6.168;2023-01-09T08:41:37;5.80;99.90
59148;DHT22;44930;52.878;6.168;2023-01-09T08:47:06;5.80;99.90
59148;DHT22;44930;52.878;6.168;2023-01-09T08:49:37;5.90;99.90
59148;DHT22;44930;52.878;6.168;2023-01-09T08:52:04;5.90;99.90
59148;DHT22;44930;52.878;6.168;2023-01-09T08:54:29;5.90;99.90
59148;DHT22;44930;52.878;6.168;2023-01-09T08:56:55;5.90;99.90
59148;DHT22;44930;52.878;6.168;2023-01-09T08:59:21;5.90;99.90
59148;DHT22;44930;52.878;6.168;2023-01-09T09:01:47;5.90;99.90
59148;DHT22;44930;52.878;6.168;2023-01-09T09:04:12;6.00;99.90
59148;DHT22;44930;52.878;6.168;2023-01-09T09:06:38;5.90;99.90
59148;DHT22;44930;52.878;6.168;2023-01-09T09:11:32;6.00;99.90
59148;DHT22;44930;52.878;6.168;2023-01-09T09:13:58;6.00;99.90
59148;DHT22;44930;52.878;6.168;2023-01-09T09:16:25;6.10;99.90
59148;DHT22;44930;52.878;6.168;2023-01-09T09:21:17;6.10;99.90
59148;DHT22;44930;52.878;6.168;2023-01-09T09:23:42;6.20;99.90
59148;DHT22;44930;52.878;6.168;2023-01-09T09:26:11;6.10;99.90
59148;DHT22;44930;52.878;6.168;2023-01-09T09:28:37;6.10;99.90
59148;DHT22;44930;52.878;6.168;2023-01-09T09:31:06;6.30;99.90
59148;DHT22;44930;52.878;6.168;2023-01-09T09:33:32;6.20;99.90
59148;DHT22;44930;52.878;6.168;2023-01-09T09:35:58;6.20;99.90
59148;DHT22;44930;52.878;6.168;2023-01-09T09:38:24;6.20;99.90
59148;DHT22;44930;52.878;6.168;2023-01-09T09:43:31;6.70;99.90
59148;DHT22;44930;52.878;6.168;2023-01-09T09:49:05;6.50;99.90
59148;DHT22;44930;52.878;6.168;2023-01-09T09:54:40;6.30;99.90
59148;DHT22;44930;52.878;6.168;2023-01-09T09:57:12;6.40;99.90
59148;DHT22;44930;52.878;6.168;2023-01-09T09:59:40;6.40;99.90
59148;DHT22;44930;52.878;6.168;2023-01-09T10:02:22;6.50;99.90
59148;DHT22;44930;52.878;6.168;2023-01-09T10:04:58;6.60;99.90
59148;DHT22;44930;52.878;6.168;2023-01-09T10:07:34;6.70;99.90
59148;DHT22;44930;52.878;6.168;2023-01-09T10:10:04;6.50;99.90
59148;DHT22;44930;52.878;6.168;2023-01-09T10:12:36;6.50;99.90
59148;DHT22;44930;52.878;6.168;2023-01-09T10:15:37;6.50;99.90
59148;DHT22;44930;52.878;6.168;2023-01-09T10:18:45;6.80;99.90
59148;DHT22;44930;52.878;6.168;2023-01-09T10:27:01;6.60;99.90
59148;DHT22;44930;52.878;6.168;2023-01-09T10:32:34;6.70;99.90
59148;DHT22;44930;52.878;6.168;2023-01-09T10:38:03;7.00;99.90
59148;DHT22;44930;52.878;6.168;2023-01-09T10:40:39;6.70;99.90
59148;DHT22;44930;52.878;6.168;2023-01-09T10:43:11;7.00;99.90
59148;DHT22;44930;52.878;6.168;2023-01-09T10:50:54;6.70;99.90
59148;DHT22;44930;52.878;6.168;2023-01-09T10:53:23;6.70;99.90
59148;DHT22;44930;52.878;6.168;2023-01-09T10:58:20;6.70;99.90
59148;DHT22;44930;52.878;6.168;2023-01-09T11:00:47;6.80;99.90
59148;DHT22;44930;52.878;6.168;2023-01-09T11:03:19;6.90;99.90
59148;DHT22;44930;52.878;6.168;2023-01-09T11:05:52;6.70;99.90
59148;DHT22;44930;52.878;6.168;2023-01-09T11:08:33;7.20;99.90
59148;DHT22;44930;52.878;6.168;2023-01-09T11:11:01;7.10;99.90
59148;DHT22;44930;52.878;6.168;2023-01-09T11:13:31;7.20;99.90
59148;DHT22;44930;52.878;6.168;2023-01-09T11:18:55;7.50;99.90
59148;DHT22;44930;52.878;6.168;2023-01-09T11:21:39;7.40;99.90
59148;DHT22;44930;52.878;6.168;2023-01-09T11:26:48;7.20;99.90
59148;DHT22;44930;52.878;6.168;2023-01-09T11:31:56;7.50;99.90
59148;DHT22;44930;52.878;6.168;2023-01-09T11:37:43;8.00;99.90
59148;DHT22;44930;52.878;6.168;2023-01-09T11:39:49;7.90;99.90
59148;DHT22;44930;52.878;6.168;2023-01-09T11:42:23;7.90;99.90
59148;DHT22;44930;52.878;6.168;2023-01-09T11:47:43;8.10;99.90
59148;DHT22;44930;52.878;6.168;2023-01-09T11:52:42;8.20;99.90
59148;DHT22;44930;52.878;6.168;2023-01-09T11:55:12;8.00;99.90
59148;DHT22;44930;52.878;6.168;2023-01-09T11:57:40;8.10;99.90
59148;DHT22;44930;52.878;6.168;2023-01-09T12:05:54;8.30;99.90
59148;DHT22;44930;52.878;6.168;2023-01-09T12:13:58;8.40;99.90
59148;DHT22;44930;52.878;6.168;2023-01-09T12:22:51;8.20;99.90
59148;DHT22;44930;52.878;6.168;2023-01-09T12:45:00;8.20;99.90
59148;DHT22;44930;52.878;6.168;2023-01-09T12:47:46;7.80;99.90
59148;DHT22;44930;52.878;6.168;2023-01-09T12:55:35;8.30;99.90
59148;DHT22;44930;52.878;6.168;2023-01-09T12:58:11;8.60;99.90
59148;DHT22;44930;52.878;6.168;2023-01-09T13:00:42;8.30;99.90
59148;DHT22;44930;52.878;6.168;2023-01-09T13:03:39;8.10;99.90
59148;DHT22;44930;52.878;6.168;2023-01-09T13:06:09;8.30;99.90
59148;DHT22;44930;52.878;6.168;2023-01-09T13:11:33;8.20;99.90
59148;DHT22;44930;52.878;6.168;2023-01-09T13:14:10;8.30;99.90
59148;DHT22;44930;52.878;6.168;2023-01-09T13:16:43;8.40;99.90
59148;DHT22;44930;52.878;6.168;2023-01-09T13:19:26;8.40;99.90
59148;DHT22;44930;52.878;6.168;2023-01-09T13:21:52;8.40;99.90
59148;DHT22;44930;52.878;6.168;2023-01-09T13:24:28;8.50;99.90
59148;DHT22;44930;52.878;6.168;2023-01-09T13:26:58;8.40;99.90
59148;DHT22;44930;52.878;6.168;2023-01-09T13:29:42;8.50;99.90
59148;DHT22;44930;52.878;6.168;2023-01-09T13:32:20;8.50;99.90
59148;DHT22;44930;52.878;6.168;2023-01-09T13:34:51;8.50;99.90
59148;DHT22;44930;52.878;6.168;2023-01-09T13:37:37;8.30;99.90
59148;DHT22;44930;52.878;6.168;2023-01-09T13:40:18;8.40;99.90
59148;DHT22;44930;52.878;6.168;2023-01-09T13:42:55;8.40;99.90
59148;DHT22;44930;52.878;6.168;2023-01-09T13:45:23;8.40;99.90
59148;DHT22;44930;52.878;6.168;2023-01-09T13:50:39;8.70;99.90
59148;DHT22;44930;52.878;6.168;2023-01-09T14:00:51;8.80;99.90
59148;DHT22;44930;52.878;6.168;2023-01-09T14:03:19;8.50;99.90
59148;DHT22;44930;52.878;6.168;2023-01-09T14:08:12;8.80;99.90
59148;DHT22;44930;52.878;6.168;2023-01-09T14:15:43;8.90;99.90
59148;DHT22;44930;52.878;6.168;2023-01-09T14:18:14;8.80;99.90
59148;DHT22;44930;52.878;6.168;2023-01-09T14:21:02;8.90;99.90
59148;DHT22;44930;52.878;6.168;2023-01-09T14:23:46;9.10;99.90
59148;DHT22;44930;52.878;6.168;2023-01-09T14:28:46;8.80;99.90
59148;DHT22;44930;52.878;6.168;2023-01-09T14:34:28;9.10;99.90
59148;DHT22;44930;52.878;6.168;2023-01-09T14:36:58;8.40;99.90
59148;DHT22;44930;52.878;6.168;2023-01-09T14:39:26;8.60;99.90
59148;DHT22;44930;52.878;6.168;2023-01-09T14:41:55;8.60;99.90
59148;DHT22;44930;52.878;6.168;2023-01-09T14:46:52;8.50;99.90
59148;DHT22;44930;52.878;6.168;2023-01-09T14:49:33;8.50;99.90
59148;DHT22;44930;52.878;6.168;2023-01-09T14:52:02;8.40;99.90
59148;DHT22;44930;52.878;6.168;2023-01-09T14:54:33;8.90;99.90
59148;DHT22;44930;52.878;6.168;2023-01-09T14:57:01;8.30;99.90
59148;DHT22;44930;52.878;6.168;2023-01-09T14:59:27;8.40;99.90
59148;DHT22;44930;52.878;6.168;2023-01-09T15:01:53;8.30;99.90
59148;DHT22;44930;52.878;6.168;2023-01-09T15:04:32;8.20;99.90
59148;DHT22;44930;52.878;6.168;2023-01-09T15:07:00;8.30;99.90
59148;DHT22;44930;52.878;6.168;2023-01-09T15:09:45;8.40;99.90
59148;DHT22;44930;52.878;6.168;2023-01-09T15:12:17;8.50;99.90
59148;DHT22;44930;52.878;6.168;2023-01-09T15:14:44;8.10;99.90
59148;DHT22;44930;52.878;6.168;2023-01-09T15:17:23;7.70;99.90
59148;DHT22;44930;52.878;6.168;2023-01-09T15:19:49;7.90;99.90
59148;DHT22;44930;52.878;6.168;2023-01-09T15:22:42;8.10;99.90
59148;DHT22;44930;52.878;6.168;2023-01-09T15:25:30;7.90;99.90
59148;DHT22;44930;52.878;6.168;2023-01-09T15:27:58;8.00;99.90
59148;DHT22;44930;52.878;6.168;2023-01-09T15:33:25;7.80;99.90
59148;DHT22;44930;52.878;6.168;2023-01-09T15:35:51;7.80;99.90
59148;DHT22;44930;52.878;6.168;2023-01-09T15:38:23;7.70;99.90
59148;DHT22;44930;52.878;6.168;2023-01-09T15:40:57;7.50;99.90
59148;DHT22;44930;52.878;6.168;2023-01-09T15:43:24;7.60;99.90
59148;DHT22;44930;52.878;6.168;2023-01-09T15:45:51;7.70;99.90
59148;DHT22;44930;52.878;6.168;2023-01-09T15:48:26;7.90;99.90
59148;DHT22;44930;52.878;6.168;2023-01-09T15:51:08;7.40;99.90
59148;DHT22;44930;52.878;6.168;2023-01-09T15:53:36;7.60;99.90
59148;DHT22;44930;52.878;6.168;2023-01-09T15:58:53;7.50;99.90
59148;DHT22;44930;52.878;6.168;2023-01-09T16:01:26;7.60;99.90
59148;DHT22;44930;52.878;6.168;2023-01-09T16:04:06;7.20;99.90
59148;DHT22;44930;52.878;6.168;2023-01-09T16:06:35;7.30;99.90
59148;DHT22;44930;52.878;6.168;2023-01-09T16:09:02;7.40;99.90
59148;DHT22;44930;52.878;6.168;2023-01-09T16:11:32;7.40;99.90
59148;DHT22;44930;52.878;6.168;2023-01-09T16:14:17;7.90;99.90
59148;DHT22;44930;52.878;6.168;2023-01-09T16:16:43;7.40;99.90
59148;DHT22;44930;52.878;6.168;2023-01-09T16:21:57;7.50;99.90
59148;DHT22;44930;52.878;6.168;2023-01-09T16:24:58;7.60;99.90
59148;DHT22;44930;52.878;6.168;2023-01-09T16:27:29;7.50;99.90
59148;DHT22;44930;52.878;6.168;2023-01-09T16:30:01;7.70;99.90
59148;DHT22;44930;52.878;6.168;2023-01-09T16:32:31;7.60;99.90
59148;DHT22;44930;52.878;6.168;2023-01-09T16:34:59;7.50;99.90
59148;DHT22;44930;52.878;6.168;2023-01-09T16:37:26;7.50;99.90
59148;DHT22;44930;52.878;6.168;2023-01-09T16:40:22;7.60;99.90
59148;DHT22;44930;52.878;6.168;2023-01-09T16:42:55;7.40;99.90
59148;DHT22;44930;52.878;6.168;2023-01-09T16:45:34;7.30;99.90
59148;DHT22;44930;52.878;6.168;2023-01-09T16:48:10;6.90;99.90
59148;DHT22;44930;52.878;6.168;2023-01-09T16:50:36;7.30;99.90
59148;DHT22;44930;52.878;6.168;2023-01-09T16:53:24;7.20;99.90
59148;DHT22;44930;52.878;6.168;2023-01-09T16:55:52;7.10;99.90
59148;DHT22;44930;52.878;6.168;2023-01-09T16:58:27;7.10;99.90
59148;DHT22;44930;52.878;6.168;2023-01-09T17:00:54;7.10;99.90
59148;DHT22;44930;52.878;6.168;2023-01-09T17:03:20;7.00;99.90
59148;DHT22;44930;52.878;6.168;2023-01-09T17:05:48;6.90;99.90
59148;DHT22;44930;52.878;6.168;2023-01-09T17:08:29;6.60;99.90
59148;DHT22;44930;52.878;6.168;2023-01-09T17:10:57;6.60;99.90
59148;DHT22;44930;52.878;6.168;2023-01-09T17:13:23;6.70;99.90
59148;DHT22;44930;52.878;6.168;2023-01-09T17:15:53;6.60;99.90
59148;DHT22;44930;52.878;6.168;2023-01-09T17:18:21;6.60;99.90
59148;DHT22;44930;52.878;6.168;2023-01-09T17:20:52;6.40;99.90
59148;DHT22;44930;52.878;6.168;2023-01-09T17:23:18;6.50;99.90
59148;DHT22;44930;52.878;6.168;2023-01-09T17:25:45;6.50;99.90
59148;DHT22;44930;52.878;6.168;2023-01-09T17:28:30;6.50;99.90
59148;DHT22;44930;52.878;6.168;2023-01-09T17:30:59;6.30;99.90
59148;DHT22;44930;52.878;6.168;2023-01-09T17:33:25;6.40;99.90
59148;DHT22;44930;52.878;6.168;2023-01-09T17:35:51;6.30;99.90
59148;DHT22;44930;52.878;6.168;2023-01-09T17:38:17;6.20;99.90
59148;DHT22;44930;52.878;6.168;2023-01-09T17:40:43;6.20;99.90
59148;DHT22;44930;52.878;6.168;2023-01-09T17:43:09;6.10;99.90
59148;DHT22;44930;52.878;6.168;2023-01-09T17:45:36;6.20;99.90
59148;DHT22;44930;52.878;6.168;2023-01-09T17:48:02;6.20;99.90
59148;DHT22;44930;52.878;6.168;2023-01-09T17:50:27;6.20;99.90
59148;DHT22;44930;52.878;6.168;2023-01-09T17:55:23;6.10;99.90
59148;DHT22;44930;52.878;6.168;2023-01-09T17:57:49;6.10;99.90
59148;DHT22;44930;52.878;6.168;2023-01-09T18:00:35;6.00;99.90
59148;DHT22;44930;52.878;6.168;2023-01-09T18:03:03;6.00;99.90
59148;DHT22;44930;52.878;6.168;2023-01-09T18:05:29;6.00;99.90
59148;DHT22;44930;52.878;6.168;2023-01-09T18:07:55;6.10;99.90
59148;DHT22;44930;52.878;6.168;2023-01-09T18:10:23;6.30;99.90
59148;DHT22;44930;52.878;6.168;2023-01-09T18:12:50;6.10;99.90
59148;DHT22;44930;52.878;6.168;2023-01-09T18:15:16;6.00;99.90
59148;DHT22;44930;52.878;6.168;2023-01-09T18:17:42;5.90;99.90
59148;DHT22;44930;52.878;6.168;2023-01-09T18:20:08;5.90;99.90
59148;DHT22;44930;52.878;6.168;2023-01-09T18:22:35;5.90;99.90
59148;DHT22;44930;52.878;6.168;2023-01-09T18:25:00;5.90;99.90
59148;DHT22;44930;52.878;6.168;2023-01-09T18:29:52;6.00;99.90
59148;DHT22;44930;52.878;6.168;2023-01-09T18:32:18;5.90;99.90
59148;DHT22;44930;52.878;6.168;2023-01-09T18:34:43;5.90;99.90
59148;DHT22;44930;52.878;6.168;2023-01-09T18:37:09;5.90;99.90
59148;DHT22;44930;52.878;6.168;2023-01-09T18:39:35;5.90;99.90
59148;DHT22;44930;52.878;6.168;2023-01-09T18:44:26;6.00;99.90
59148;DHT22;44930;52.878;6.168;2023-01-09T18:46:52;5.90;99.90
59148;DHT22;44930;52.878;6.168;2023-01-09T18:49:18;5.90;99.90
59148;DHT22;44930;52.878;6.168;2023-01-09T18:51:44;5.90;99.90
59148;DHT22;44930;52.878;6.168;2023-01-09T18:54:10;6.00;99.90
59148;DHT22;44930;52.878;6.168;2023-01-09T18:56:37;6.10;99.90
59148;DHT22;44930;52.878;6.168;2023-01-09T18:59:03;6.00;99.90
59148;DHT22;44930;52.878;6.168;2023-01-09T19:01:30;6.10;99.90
59148;DHT22;44930;52.878;6.168;2023-01-09T19:03:57;6.10;99.90
59148;DHT22;44930;52.878;6.168;2023-01-09T19:06:27;6.20;99.90
59148;DHT22;44930;52.878;6.168;2023-01-09T19:08:52;6.10;99.90
59148;DHT22;44930;52.878;6.168;2023-01-09T19:11:19;6.30;99.90
59148;DHT22;44930;52.878;6.168;2023-01-09T19:13:45;6.20;99.90
59148;DHT22;44930;52.878;6.168;2023-01-09T19:16:11;6.20;99.90
59148;DHT22;44930;52.878;6.168;2023-01-09T19:18:38;6.30;99.90
59148;DHT22;44930;52.878;6.168;2023-01-09T19:21:13;6.10;99.90
59148;DHT22;44930;52.878;6.168;2023-01-09T19:23:41;6.20;99.90
59148;DHT22;44930;52.878;6.168;2023-01-09T19:26:09;6.40;99.90
59148;DHT22;44930;52.878;6.168;2023-01-09T19:28:39;6.30;99.90